Clute, Texas
Current Conditions -  °F | °C
As of 8:53 AM on Tuesday 21 Oct 2014 (Local Time) from KLBX Reporting Station
Clear Clear  
Wind Chill: 67°   Ceiling: Unl
Heat Index: 67°   Visibility: 10mi
Dew Point: 62°   Wind: 7mph
Humidity: 84%   Direction: 40°NE
Pressure: 30.04"   Gusts: NA
Location:  29.02°N, 95.39°W
Report Text: KLBX 211353Z AUTO 04006KT 10SM CLR 19/17 A3004 RMK AO2 SLP172 T01940167
Loading
Personal Weather Stations






























Interactive Weather Map
Tropical Storm Tracking
New forecast layout! Learn more

10-Day Weather Forecast

Advertisements
Track Severe Weather on mobile